• Join FlightAware (Why Join?)
  • Login
  • US Flag 
03:43AM EST


 

Airport Tracker/Info


-or-


 

Live Flight TrackerFlight Track Log ✈ FSR411 ✈ 22-Aug-2014 ✈ KTVC - KSUS

Flight Track Log - Related Links

Times and Time Zones

All times are in EDT time to prevent confusion due to time zone crossing. See the FSR411 flight status page for this flight to view local times or setup timezone preferences in your user account.

Time Position Orientation Groundspeed Altitude Reporting Facility
EDT Latitude Longitude Course Direction KTS MPH feet Rate Location/Type
02:36PM 44.7114 -85.5922 204° Southwest 170 196 2,100  Level Chicago Center
02:37PM 44.6658 -85.6297 210° Southwest 187 215 4,500 2,220 Climbing Minneapolis Center
02:38PM 44.6031 -85.6733 206° Southwest 224 258 6,600 2,340 Climbing Minneapolis Center
02:39PM 44.5333 -85.7206 206° Southwest 271 312 9,400 2,700 Climbing Minneapolis Center
02:39PM 44.5333 -85.7206 206° Southwest 271 312 9,400 1,980 Level Minneapolis Center
02:40PM 44.4603 -85.7686 205° Southwest 284 327 11,500 1,860 Climbing Minneapolis Center
02:41PM 44.7373 -85.5845 204° Southwest  Level FlightAware Approximate
02:41PM 44.3647 -85.8311 205° Southwest 311 358 13,300  Level Minneapolis Center
02:42PM 44.2797 -85.8867 205° Southwest 328 377 14,600 1,200 Climbing Minneapolis Center
02:43PM 44.1919 -85.9442 205° Southwest 340 391 15,900 1,260 Climbing Minneapolis Center
02:44PM 44.0992 -86.0050 205° Southwest 358 412 17,300 1,740 Climbing Minneapolis Center
02:45PM 43.9939 -86.0756 206° Southwest 406 467 19,600 2,280 Climbing Minneapolis Center
02:46PM 43.8836 -86.1472 205° Southwest 430 495 22,100 2,460 Climbing Minneapolis Center
02:47PM 43.7492 -86.2325 205° Southwest 442 509 24,700 2,160 Climbing Minneapolis Center
02:48PM 43.6353 -86.3064 205° Southwest 451 519 26,600 1,860 Climbing Minneapolis Center
02:49PM 43.5214 -86.3797 205° Southwest 452 520 28,600 1,860 Climbing Minneapolis Center
02:50PM 43.4075 -86.4522 205° Southwest 453 521 30,500 2,220 Climbing Minneapolis Center
02:51PM 43.2761 -86.5364 205° Southwest 449 517 33,400 2,340 Climbing Chicago Center
02:52PM 43.1742 -86.6022 205° Southwest 417 480 35,600 1,920 Climbing Chicago Center
02:53PM 43.0747 -86.6642 204° Southwest 399 459 37,400 1,500 Climbing Chicago Center
02:55PM 42.9781 -86.7253 205° Southwest 389 448 38,800 1,200 Climbing Chicago Center
02:56PM 42.8639 -86.7967 205° Southwest 382 440 40,000 540 Climbing Chicago Center
02:57PM 42.7647 -86.8581 204° Southwest 389 448 40,000  Level Chicago Center
02:58PM 42.6603 -86.9208 204° Southwest 408 470 40,000  Level Chicago Center
02:59PM 42.5417 -86.9969 205° Southwest 423 487 40,000  Level Chicago Center
03:00PM 42.4331 -87.0625 204° Southwest 424 488 40,000  Level Chicago Center
03:01PM 42.3250 -87.1283 204° Southwest 425 489 40,000  Level Chicago Center
03:02PM 42.1953 -87.2075 204° Southwest 427 491 40,000  Level Chicago Center
03:03PM 42.0861 -87.2747 205° Southwest 429 494 40,000  Level Chicago Center
03:04PM 41.9894 -87.3661 215° Southwest 427 491 40,000  Level Chicago Center
03:05PM 41.8906 -87.4553 214° Southwest 424 488 40,000  Level Chicago Center
03:06PM 41.7914 -87.5442 214° Southwest 427 491 40,000  Level Chicago Center
03:07PM 41.6936 -87.6331 214° Southwest 426 490 40,000  Level Chicago Center
03:08PM 41.5736 -87.7403 214° Southwest 429 494 40,000  Level Chicago Center
03:09PM 41.4733 -87.8283 213° Southwest 430 495 40,000  Level Chicago Center
03:10PM 41.3689 -87.9164 212° Southwest 434 499 40,000  Level Chicago Center
03:11PM 41.2653 -88.0117 215° Southwest 445 512 40,000  Level Chicago Center
03:12PM 41.1644 -88.1031 214° Southwest 439 505 40,000  Level Chicago Center
03:13PM 41.0628 -88.1931 214° Southwest 436 502 40,000 -180 Level Chicago Center
03:14PM 40.9622 -88.2819 214° Southwest 436 502 39,700 -900 Descending Chicago Center
03:15PM 40.8597 -88.3706 213° Southwest 437 503 38,200 -1,620 Descending Chicago Center
03:16PM 40.7367 -88.4769 213° Southwest 438 504 36,400 -1,680 Descending Chicago Center
03:17PM 40.6356 -88.5650 213° Southwest 438 504 34,700 -1,680 Descending Chicago Center
03:18PM 40.5292 -88.6567 213° Southwest 452 520 33,000 -1,740 Descending Chicago Center
03:19PM 40.4083 -88.7586 213° Southwest 462 532 31,200 -1,620 Descending Chicago Center
03:20PM 40.2994 -88.8531 213° Southwest 465 535 29,700 -1,440 Descending Chicago Center
03:22PM 40.1897 -88.9458 213° Southwest 465 535 28,200 -1,500 Descending Chicago Center
03:22PM 40.1225 -89.0031 213° Southwest 465 535 27,100 -1,740 Descending Kansas City Center
03:23PM 40.0117 -89.0964 213° Southwest 468 539 25,200 -1,680 Descending Kansas City Center
03:24PM 39.8797 -89.2069 213° Southwest 469 540 23,700 -1,260 Descending Kansas City Center
03:25PM 39.7742 -89.2953 213° Southwest 456 525 22,700 -1,260 Descending Kansas City Center
03:26PM 39.6781 -89.3769 213° Southwest 446 513 21,100 -1,860 Descending Kansas City Center
03:27PM 39.5733 -89.4625 212° Southwest 446 513 18,900 -2,400 Descending Kansas City Center
03:28PM 39.4556 -89.5608 213° Southwest 426 490 16,200 -2,340 Descending Kansas City Center
03:29PM 39.3661 -89.6347 213° Southwest 391 450 14,100 -1,980 Descending Kansas City Center
03:30PM 39.2750 -89.7089 212° Southwest 389 448 12,200 -1,020 Descending Kansas City Center
03:32PM 39.2006 -89.7944 222° Southwest 366 421 12,100 -240 Descending Kansas City Center
03:33PM 39.1422 -89.9189 239° Southwest 356 410 11,800 -960 Descending Kansas City Center
03:34PM 39.0683 -90.0131 225° Southwest 352 405 10,200 -1,500 Descending Kansas City Center
03:35PM 39.0056 -90.0806 220° Southwest 305 351 8,700 -1,740 Descending Kansas City Center
03:36PM 38.9472 -90.1444 220° Southwest 282 325 6,700 -1,680 Descending Kansas City Center
03:37PM 38.8917 -90.2064 221° Southwest 277 319 5,300 -1,200 Descending Kansas City Center
03:38PM 38.8372 -90.2667 221° Southwest 265 305 4,200 -600 Descending Kansas City Center
03:39PM 38.7919 -90.3169 221° Southwest 222 255 4,100 -60 Descending Kansas City Center
03:40PM 38.7419 -90.3764 223° Southwest 209 241 4,100 -300 Level Kansas City Center
03:41PM 38.7042 -90.4328 229° Southwest 216 249 3,500 -1,020 Descending Kansas City Center
03:42PM 38.6822 -90.5072 249° West 232 267 2,100 -1,020 Descending Kansas City Center
03:43PM 38.6719 -90.5717 258° West 195 224 1,500 -720 Descending Kansas City Center
03:44PM 38.6631 -90.6283 259° West 157 181 700 -480 Descending Kansas City Center
03:45PM 38.6544 -90.6800 258° West 153 176 600 -120 Descending Kansas City Center
03:47PM 38.6500 -90.6500 90° East  Level FlightAware Approximate